Terminal Aerodrome Forecast
Issued by NWS

Home | Current Version | Previous Version | Text Only | Print | Product List | Glossary On
Versions: 1 2 3 4 5 6 7 8 9 10 11 12 13 14 15
000
FTUS45 KBOI 291957 AAA
TAFBKE
TAF AMD
KBKE 291957Z 2920/3018 32012KT P6SM -RA OVC035
     FM300400 31012KT P6SM BKN050
     FM301400 32015G25KT P6SM SCT100=

USA.gov is the U.S. government's official web portal to all federal, state and local government web resources and services.